Terminal Aerodrome Forecast
Issued by NWS

Home | Current Version | Previous Version | Text Only | Print | Product List | Glossary On
Versions: 1 2 3 4 5 6 7 8 9 10 11 12 13 14
000
FTUS41 KPHI 201401 AAA
TAFMIV
TAF AMD
KMIV 201401Z 2014/2112 34012KT P6SM SKC
     FM202300 36004KT P6SM FEW250
     FM210600 VRB02KT P6SM BKN250=

USA.gov is the U.S. government's official web portal to all federal, state and local government web resources and services.